createdAt,value
2023-04-24T00:01:35.142Z,44.88
2023-04-24T00:04:02.913Z,44.95
2023-04-24T00:06:35.456Z,44.96
2023-04-24T00:09:02.260Z,45.04
2023-04-24T00:11:29.518Z,45.19
2023-04-24T00:13:56.909Z,45.32
2023-04-24T00:16:24.589Z,45.35
2023-04-24T00:18:53.794Z,45.35
2023-04-24T00:21:20.564Z,45.41
2023-04-24T00:23:47.252Z,45.49
2023-04-24T00:26:13.975Z,45.54
2023-04-24T00:28:40.782Z,45.69
2023-04-24T00:31:08.253Z,45.76
2023-04-24T00:33:34.889Z,45.82
2023-04-24T00:36:01.415Z,45.87
2023-04-24T00:38:27.932Z,46.03
2023-04-24T00:40:55.127Z,46.09
2023-04-24T00:43:21.761Z,46.14
2023-04-24T00:45:48.592Z,46.25
2023-04-24T00:48:15.767Z,46.38
2023-04-24T00:50:43.272Z,46.42
2023-04-24T00:53:09.863Z,46.57
2023-04-24T00:55:38.265Z,46.66
2023-04-24T00:58:05.845Z,46.72
2023-04-24T01:00:32.722Z,46.77
2023-04-24T01:03:02.988Z,46.82
2023-04-24T01:05:29.680Z,46.84
2023-04-24T01:07:57.045Z,47.02
2023-04-24T01:10:25.279Z,47.09
2023-04-24T01:12:53.159Z,47.08
2023-04-24T01:15:22.009Z,47.17
2023-04-24T01:17:48.588Z,47.30
2023-04-24T01:20:16.719Z,47.36
2023-04-24T01:22:43.343Z,47.51
2023-04-24T01:25:10.533Z,47.54
2023-04-24T01:27:37.071Z,47.48
2023-04-24T01:30:06.921Z,47.53
2023-04-24T01:32:34.074Z,47.55
2023-04-24T01:35:01.076Z,47.59
2023-04-24T01:37:27.994Z,47.77
2023-04-24T01:39:54.894Z,47.85
2023-04-24T01:42:21.463Z,47.89
2023-04-24T01:44:48.156Z,48.04
2023-04-24T01:47:14.810Z,48.05
2023-04-24T01:49:41.777Z,48.18
2023-04-24T01:52:08.642Z,48.27
2023-04-24T01:54:35.241Z,48.27
2023-04-24T01:57:03.620Z,48.34
2023-04-24T01:59:30.944Z,48.41
2023-04-24T02:01:57.485Z,48.48
2023-04-24T02:04:24.077Z,48.57
2023-04-24T02:06:51.076Z,48.50
2023-04-24T02:09:17.689Z,48.69
2023-04-24T02:11:44.810Z,48.79
2023-04-24T02:14:11.470Z,48.85
2023-04-24T02:16:52.324Z,48.87
2023-04-24T02:19:18.920Z,48.84
2023-04-24T02:21:45.421Z,48.85
2023-04-24T02:24:11.966Z,48.89
2023-04-24T02:26:38.520Z,48.95
2023-04-24T02:29:05.184Z,48.92
2023-04-24T02:31:31.738Z,48.96
2023-04-24T02:33:58.304Z,49.09
2023-04-24T02:36:24.908Z,49.06
2023-04-24T02:38:51.438Z,49.14
2023-04-24T02:41:18.082Z,49.17
2023-04-24T02:43:44.663Z,49.23
2023-04-24T02:46:11.313Z,49.29
2023-04-24T02:48:38.021Z,49.24
2023-04-24T02:51:05.208Z,49.42
2023-04-24T02:53:31.844Z,49.48
2023-04-24T02:55:58.431Z,49.55
2023-04-24T02:58:25.977Z,49.55
2023-04-24T03:00:57.032Z,49.54
2023-04-24T03:03:24.004Z,49.49
2023-04-24T03:05:51.326Z,49.64
2023-04-24T03:08:18.594Z,49.70
2023-04-24T03:10:46.263Z,49.88
2023-04-24T03:13:17.703Z,49.87
2023-04-24T03:15:44.412Z,49.94
2023-04-24T03:18:11.037Z,49.97
2023-04-24T03:20:38.613Z,50.00
2023-04-24T03:23:05.467Z,49.94
2023-04-24T03:25:32.423Z,50.08
2023-04-24T03:27:59.127Z,50.11
2023-04-24T03:30:35.793Z,50.12
2023-04-24T03:33:02.995Z,50.13
2023-04-24T03:35:31.332Z,50.28
2023-04-24T03:38:00.632Z,50.28
2023-04-24T03:40:39.209Z,50.42
2023-04-24T03:43:13.481Z,50.55
2023-04-24T03:45:40.012Z,50.53
2023-04-24T03:48:07.100Z,50.50
2023-04-24T03:50:33.625Z,50.52
2023-04-24T03:53:00.543Z,50.67
2023-04-24T03:55:34.878Z,50.79
2023-04-24T03:58:01.827Z,50.88
2023-04-24T04:00:28.874Z,50.94
2023-04-24T04:03:03.624Z,50.88
2023-04-24T04:05:30.975Z,51.00
2023-04-24T04:07:57.764Z,51.02
2023-04-24T04:10:24.704Z,51.09
2023-04-24T04:12:51.256Z,51.08
2023-04-24T04:15:17.865Z,51.18
2023-04-24T04:17:44.598Z,51.20
2023-04-24T04:20:11.826Z,51.25
2023-04-24T04:22:39.167Z,51.23
2023-04-24T04:25:09.417Z,51.16
2023-04-24T04:27:36.240Z,51.31
2023-04-24T04:30:06.766Z,51.35
2023-04-24T04:32:40.126Z,51.31
2023-04-24T04:35:07.115Z,51.46
2023-04-24T04:37:34.422Z,51.49
2023-04-24T04:40:13.386Z,51.55
2023-04-24T04:42:48.586Z,51.60
2023-04-24T04:45:17.965Z,51.56
2023-04-24T04:48:01.795Z,51.56
2023-04-24T04:50:29.423Z,51.48
2023-04-24T04:52:57.827Z,51.48
2023-04-24T04:55:28.347Z,51.42
2023-04-24T04:58:08.165Z,51.35
2023-04-24T05:00:36.816Z,51.36
2023-04-24T05:03:20.125Z,51.30
2023-04-24T05:05:50.762Z,51.30
2023-04-24T05:08:26.496Z,51.31
2023-04-24T05:10:54.829Z,51.22
2023-04-24T05:13:31.723Z,51.13
2023-04-24T05:15:59.391Z,51.10
2023-04-24T05:18:26.508Z,51.14
2023-04-24T05:20:53.477Z,50.96
2023-04-24T05:23:20.478Z,50.81
2023-04-24T05:25:52.233Z,50.81
2023-04-24T05:28:20.004Z,50.90
2023-04-24T05:30:51.937Z,50.75
2023-04-24T05:33:18.795Z,50.62
2023-04-24T05:35:48.034Z,50.52
2023-04-24T05:38:18.653Z,50.50
2023-04-24T05:40:45.425Z,50.46
2023-04-24T05:43:12.031Z,50.26
2023-04-24T05:45:39.552Z,50.20
2023-04-24T05:48:06.859Z,50.28
2023-04-24T05:50:34.895Z,50.19
2023-04-24T05:53:03.866Z,49.70
2023-04-24T05:55:33.792Z,49.89
2023-04-24T05:58:00.781Z,49.86
2023-04-24T06:00:27.894Z,49.82
2023-04-24T06:03:00.116Z,49.83
2023-04-24T06:05:27.617Z,49.61
2023-04-24T06:07:54.566Z,49.58
2023-04-24T06:10:23.070Z,49.73
2023-04-24T06:12:50.614Z,49.67
2023-04-24T06:15:17.905Z,49.65
2023-04-24T06:17:57.677Z,49.50
2023-04-24T06:20:25.118Z,49.45
2023-04-24T06:22:51.864Z,49.56
2023-04-24T06:25:19.074Z,49.48
2023-04-24T06:27:45.919Z,49.25
2023-04-24T06:30:12.906Z,48.95
2023-04-24T06:32:39.504Z,48.91
2023-04-24T06:35:08.415Z,49.27
2023-04-24T06:37:35.031Z,49.17
2023-04-24T06:40:01.933Z,48.89
2023-04-24T06:42:28.516Z,48.96
2023-04-24T06:44:55.988Z,48.22
2023-04-24T06:47:22.705Z,47.87
2023-04-24T06:49:51.794Z,47.40
2023-04-24T06:52:18.418Z,46.81
2023-04-24T06:54:45.005Z,46.24
2023-04-24T06:57:11.749Z,45.74
2023-04-24T06:59:39.129Z,45.50
2023-04-24T07:02:05.991Z,45.44
2023-04-24T07:04:32.810Z,45.17
2023-04-24T07:06:59.519Z,45.14
2023-04-24T07:09:27.942Z,44.83
2023-04-24T07:11:54.934Z,44.92
2023-04-24T07:14:21.706Z,44.89
2023-04-24T07:16:48.524Z,43.89
2023-04-24T07:19:15.861Z,43.61
2023-04-24T07:21:42.418Z,43.07
2023-04-24T07:24:12.002Z,42.63
2023-04-24T07:26:40.077Z,42.92
2023-04-24T07:29:07.635Z,42.52
2023-04-24T07:31:34.717Z,42.12
2023-04-24T07:34:01.828Z,42.31
2023-04-24T07:36:29.034Z,41.67
2023-04-24T07:38:57.398Z,41.44
2023-04-24T07:41:25.366Z,41.38
2023-04-24T07:43:53.591Z,41.12
2023-04-24T07:46:21.425Z,40.27
2023-04-24T07:48:58.649Z,38.82
2023-04-24T07:51:28.760Z,38.56
2023-04-24T07:53:58.315Z,39.10
2023-04-24T07:56:26.284Z,39.40
2023-04-24T07:58:54.517Z,39.18
2023-04-24T08:01:21.079Z,37.81
2023-04-24T08:03:47.768Z,38.15
2023-04-24T08:06:14.585Z,37.77
2023-04-24T08:08:41.569Z,37.10
2023-04-24T08:11:08.221Z,36.72
2023-04-24T08:13:34.954Z,36.93
2023-04-24T08:16:01.634Z,37.45
2023-04-24T08:18:28.645Z,37.55
2023-04-24T08:20:55.396Z,37.37
2023-04-24T08:23:23.080Z,36.72
2023-04-24T08:25:49.968Z,35.79
2023-04-24T08:28:21.094Z,35.46
2023-04-24T08:30:48.776Z,36.18
2023-04-24T08:33:16.173Z,35.28
2023-04-24T08:35:42.819Z,35.25
2023-04-24T08:38:09.461Z,35.33
2023-04-24T08:40:36.619Z,35.10
2023-04-24T08:43:04.665Z,34.78
2023-04-24T08:45:31.723Z,34.55
2023-04-24T08:47:59.403Z,34.66
2023-04-24T08:50:26.574Z,34.08
2023-04-24T08:52:54.568Z,33.94
2023-04-24T08:55:22.281Z,33.95
2023-04-24T08:57:56.891Z,33.30
2023-04-24T09:00:23.598Z,33.31
2023-04-24T09:02:51.712Z,33.14
2023-04-24T09:05:19.958Z,32.58
2023-04-24T09:07:57.300Z,32.81
2023-04-24T09:10:27.266Z,33.39
2023-04-24T09:12:55.414Z,32.89
2023-04-24T09:15:22.538Z,33.07
2023-04-24T09:17:49.204Z,33.59
2023-04-24T09:20:16.559Z,33.06
2023-04-24T09:22:44.614Z,33.76
2023-04-24T09:25:13.755Z,33.89
2023-04-24T09:27:47.439Z,33.13
2023-04-24T09:30:15.195Z,32.67
2023-04-24T09:32:42.875Z,32.70
2023-04-24T09:35:11.393Z,32.41
2023-04-24T09:37:49.864Z,31.60
2023-04-24T09:40:22.007Z,32.30
2023-04-24T09:42:58.799Z,32.03
2023-04-24T09:45:38.932Z,31.97
2023-04-24T09:48:07.455Z,31.91
2023-04-24T09:50:35.569Z,31.42
2023-04-24T09:53:04.790Z,31.75
2023-04-24T09:55:32.984Z,31.79
2023-04-24T09:58:06.442Z,31.76
2023-04-24T10:00:34.110Z,31.90
2023-04-24T10:03:04.520Z,31.46
2023-04-24T10:05:36.746Z,31.09
2023-04-24T10:08:10.416Z,31.72
2023-04-24T10:10:43.875Z,31.68
2023-04-24T10:13:11.979Z,31.40
2023-04-24T10:15:39.993Z,31.13
2023-04-24T10:18:08.622Z,31.08
2023-04-24T10:20:38.074Z,31.56
2023-04-24T10:23:05.418Z,31.44
2023-04-24T10:25:34.890Z,31.31
2023-04-24T10:28:02.552Z,31.21
2023-04-24T10:30:32.055Z,31.51
2023-04-24T10:32:58.812Z,31.40
2023-04-24T10:35:27.879Z,30.85
2023-04-24T10:38:02.582Z,30.59
2023-04-24T10:40:34.946Z,30.98
2023-04-24T10:43:11.549Z,31.01
2023-04-24T10:45:39.344Z,30.32
2023-04-24T10:48:12.044Z,30.62
2023-04-24T10:50:45.106Z,30.75
2023-04-24T10:53:18.239Z,30.63
2023-04-24T10:56:06.796Z,30.36
2023-04-24T10:58:45.227Z,30.49
2023-04-24T11:01:29.580Z,30.58
2023-04-24T11:03:58.549Z,30.68
2023-04-24T11:06:33.278Z,30.54
2023-04-24T11:09:07.206Z,30.01
2023-04-24T11:11:35.508Z,29.28
2023-04-24T11:14:05.331Z,29.44
2023-04-24T11:16:42.787Z,29.93
2023-04-24T11:19:17.370Z,30.35
2023-04-24T11:21:46.685Z,30.26
2023-04-24T11:24:26.819Z,29.79
2023-04-24T11:26:59.205Z,29.98
2023-04-24T11:29:48.748Z,29.98
2023-04-24T11:32:26.553Z,29.68
2023-04-24T11:34:54.670Z,29.98
2023-04-24T11:37:22.666Z,30.05
2023-04-24T11:39:52.920Z,29.68
2023-04-24T11:42:20.923Z,30.02
2023-04-24T11:44:48.896Z,29.99
2023-04-24T11:47:15.623Z,29.66
2023-04-24T11:49:42.590Z,29.51
2023-04-24T11:52:09.194Z,29.38
2023-04-24T11:54:35.910Z,29.28
2023-04-24T11:57:07.010Z,29.34
2023-04-24T11:59:38.371Z,29.46
2023-04-24T12:02:05.794Z,29.46
2023-04-24T12:04:41.146Z,29.36
2023-04-24T12:07:11.720Z,29.74
2023-04-24T12:09:47.678Z,29.89
2023-04-24T12:12:16.844Z,29.55
2023-04-24T12:15:10.305Z,29.75
2023-04-24T12:17:39.912Z,29.35
2023-04-24T12:20:09.733Z,29.43
2023-04-24T12:22:49.169Z,29.36
2023-04-24T12:25:17.798Z,29.18
2023-04-24T12:27:52.748Z,29.37
2023-04-24T12:30:19.316Z,29.53
2023-04-24T12:32:48.370Z,29.37
2023-04-24T12:35:21.742Z,29.66
2023-04-24T12:37:48.415Z,29.33
2023-04-24T12:40:15.942Z,28.81
2023-04-24T12:42:44.624Z,28.86
2023-04-24T12:45:13.327Z,28.98
2023-04-24T12:47:41.352Z,29.33
2023-04-24T12:50:13.103Z,29.54
2023-04-24T12:52:40.483Z,30.14
2023-04-24T12:55:11.315Z,30.53
2023-04-24T12:57:40.092Z,30.00
2023-04-24T13:00:09.312Z,29.56
2023-04-24T13:02:36.548Z,29.69
2023-04-24T13:05:03.914Z,29.95
2023-04-24T13:07:30.623Z,30.35
2023-04-24T13:09:58.831Z,30.45
2023-04-24T13:12:26.813Z,30.57
2023-04-24T13:14:54.739Z,30.76
2023-04-24T13:17:21.684Z,30.78
2023-04-24T13:19:52.029Z,30.80
2023-04-24T13:22:22.101Z,30.86
2023-04-24T13:24:51.743Z,31.22
2023-04-24T13:27:19.444Z,31.37
2023-04-24T13:29:46.815Z,31.53
2023-04-24T13:32:13.624Z,31.86
2023-04-24T13:34:40.543Z,32.15
2023-04-24T13:37:07.638Z,32.41
2023-04-24T13:39:34.378Z,32.65
2023-04-24T13:42:03.224Z,32.94
2023-04-24T13:44:31.204Z,33.15
2023-04-24T13:46:58.926Z,33.22
2023-04-24T13:49:26.594Z,33.74
2023-04-24T13:51:54.892Z,33.81
2023-04-24T13:54:23.180Z,33.78
2023-04-24T13:56:50.736Z,34.05
2023-04-24T13:59:17.539Z,34.00
2023-04-24T14:01:46.036Z,33.98
2023-04-24T14:04:13.411Z,34.08
2023-04-24T14:06:40.138Z,34.15
2023-04-24T14:09:07.400Z,34.46
2023-04-24T14:11:35.058Z,34.44
2023-04-24T14:14:01.929Z,34.47
2023-04-24T14:16:30.129Z,34.60
2023-04-24T14:18:57.234Z,34.65
2023-04-24T14:21:23.869Z,34.60
2023-04-24T14:23:50.730Z,34.82
2023-04-24T14:26:17.550Z,34.83
2023-04-24T14:28:44.307Z,34.97
2023-04-24T14:31:11.007Z,34.92
2023-04-24T14:33:37.691Z,35.20
2023-04-24T14:36:06.762Z,35.31
2023-04-24T14:38:33.812Z,35.50
2023-04-24T14:43:30.327Z,35.78
2023-04-24T14:45:57.079Z,35.80
2023-04-24T14:48:23.807Z,35.48
2023-04-24T14:50:50.552Z,35.35
2023-04-24T14:53:17.612Z,35.37
2023-04-24T14:55:44.363Z,35.15
2023-04-24T14:58:11.634Z,35.19
2023-04-24T15:00:38.456Z,35.10
2023-04-24T15:03:05.862Z,35.02
2023-04-24T15:05:32.897Z,35.05
2023-04-24T15:08:00.249Z,34.90
2023-04-24T15:10:27.021Z,35.01
2023-04-24T15:12:53.875Z,35.09
2023-04-24T15:15:20.695Z,34.80
2023-04-24T15:17:47.381Z,34.83
2023-04-24T15:20:14.201Z,34.85
2023-04-24T15:22:40.887Z,34.88
2023-04-24T15:25:08.368Z,34.96
2023-04-24T15:27:42.651Z,34.82
2023-04-24T15:30:10.890Z,34.78
2023-04-24T15:32:38.379Z,34.77
2023-04-24T15:35:09.126Z,34.79
2023-04-24T15:37:39.002Z,34.77
2023-04-24T15:40:08.455Z,34.80
2023-04-24T15:42:36.221Z,34.79
2023-04-24T15:45:04.558Z,34.75
2023-04-24T15:47:31.602Z,34.82
2023-04-24T15:49:58.857Z,34.81
2023-04-24T15:52:26.005Z,34.60
2023-04-24T15:54:53.134Z,34.53
2023-04-24T15:57:19.989Z,34.57
2023-04-24T15:59:46.962Z,34.31
2023-04-24T16:02:19.439Z,34.05
2023-04-24T16:04:47.368Z,33.75
2023-04-24T16:07:15.684Z,33.57
2023-04-24T16:09:42.780Z,33.37
2023-04-24T16:12:10.604Z,33.29
2023-04-24T16:14:38.613Z,33.50
2023-04-24T16:17:05.995Z,33.97
2023-04-24T16:19:34.555Z,34.78
2023-04-24T16:22:03.186Z,35.74
2023-04-24T16:24:31.161Z,36.95
2023-04-24T16:26:57.999Z,37.65
2023-04-24T16:29:24.964Z,37.78
2023-04-24T16:31:51.859Z,37.88
2023-04-24T16:34:18.743Z,37.89
2023-04-24T16:36:45.593Z,37.68
2023-04-24T16:39:13.082Z,37.63
2023-04-24T16:41:39.897Z,37.41
2023-04-24T16:44:06.656Z,37.32
2023-04-24T16:46:33.364Z,37.08
2023-04-24T16:49:00.328Z,37.12
2023-04-24T16:51:28.013Z,37.05
2023-04-24T16:53:55.634Z,36.80
2023-04-24T16:56:22.233Z,36.66
2023-04-24T16:58:49.218Z,36.53
2023-04-24T17:01:16.080Z,36.49
2023-04-24T17:03:43.032Z,36.42
2023-04-24T17:06:09.896Z,36.12
2023-04-24T17:08:39.365Z,36.17
2023-04-24T17:11:06.014Z,36.13
2023-04-24T17:13:32.619Z,36.06
2023-04-24T17:15:59.378Z,36.15
2023-04-24T17:18:26.315Z,35.93
2023-04-24T17:20:53.591Z,36.03
2023-04-24T17:23:20.941Z,35.94
2023-04-24T17:25:47.789Z,35.92
2023-04-24T17:28:31.862Z,35.87
2023-04-24T17:30:59.100Z,35.94
2023-04-24T17:33:30.753Z,35.81
2023-04-24T17:35:58.230Z,35.99
2023-04-24T17:38:25.361Z,35.96
2023-04-24T17:40:53.292Z,36.08
2023-04-24T17:43:21.115Z,35.94
2023-04-24T17:45:49.702Z,35.80
2023-04-24T17:48:17.159Z,35.84
2023-04-24T17:50:44.416Z,35.70
2023-04-24T17:53:11.204Z,35.74
2023-04-24T17:55:45.130Z,35.94
2023-04-24T17:58:12.645Z,35.90
2023-04-24T18:00:39.536Z,35.91
2023-04-24T18:03:07.922Z,36.11
2023-04-24T18:05:36.603Z,35.98
2023-04-24T18:08:04.710Z,36.21
2023-04-24T18:10:33.354Z,36.33
2023-04-24T18:13:00.012Z,36.24
2023-04-24T18:15:27.360Z,36.52
2023-04-24T18:17:54.551Z,36.35
2023-04-24T18:20:21.535Z,36.57
2023-04-24T18:22:48.403Z,36.41
2023-04-24T18:25:15.585Z,36.48
2023-04-24T18:27:44.145Z,36.79
2023-04-24T18:30:14.492Z,36.74
2023-04-24T18:32:42.186Z,36.66
2023-04-24T18:35:09.977Z,36.78
2023-04-24T18:37:36.597Z,37.01
2023-04-24T18:40:03.903Z,37.07
2023-04-24T18:42:30.767Z,37.04
2023-04-24T18:45:01.726Z,37.02
2023-04-24T18:47:29.130Z,37.29
2023-04-24T18:49:56.194Z,37.35
2023-04-24T18:52:24.483Z,37.40
2023-04-24T18:54:51.583Z,37.45
2023-04-24T18:57:18.537Z,37.43
2023-04-24T18:59:45.322Z,37.61
2023-04-24T19:02:12.246Z,37.59
2023-04-24T19:04:39.215Z,37.52
2023-04-24T19:07:05.896Z,37.84
2023-04-24T19:09:32.605Z,37.77
2023-04-24T19:12:01.496Z,37.74
2023-04-24T19:14:28.599Z,37.80
2023-04-24T19:16:56.603Z,37.95
2023-04-24T19:19:23.877Z,37.77
2023-04-24T19:21:50.886Z,38.09
2023-04-24T19:24:19.211Z,38.31
2023-04-24T19:26:46.263Z,38.25
2023-04-24T19:29:13.050Z,38.45
2023-04-24T19:31:39.717Z,38.45
2023-04-24T19:34:06.852Z,38.48
2023-04-24T19:36:33.889Z,38.60
2023-04-24T19:39:01.067Z,38.67
2023-04-24T19:41:27.913Z,38.57
2023-04-24T19:43:54.655Z,38.61
2023-04-24T19:46:21.709Z,38.63
2023-04-24T19:48:48.717Z,39.02
2023-04-24T19:51:15.630Z,38.92
2023-04-24T19:53:43.530Z,38.95
2023-04-24T19:56:10.685Z,39.09
2023-04-24T19:58:37.324Z,39.33
2023-04-24T20:01:05.982Z,39.39
2023-04-24T20:03:34.327Z,39.52
2023-04-24T20:06:01.882Z,39.58
2023-04-24T20:08:28.809Z,39.72
2023-04-24T20:10:57.882Z,39.88
2023-04-24T20:13:28.166Z,39.99
2023-04-24T20:15:55.030Z,39.87
2023-04-24T20:18:21.779Z,40.17
2023-04-24T20:20:48.473Z,40.14
2023-04-24T20:23:15.492Z,40.42
2023-04-24T20:25:42.119Z,40.48
2023-04-24T20:28:08.802Z,40.59
2023-04-24T20:30:35.964Z,40.67
2023-04-24T20:33:03.453Z,40.66
2023-04-24T20:35:30.664Z,40.82
2023-04-24T20:37:59.464Z,40.92
2023-04-24T20:40:27.174Z,41.01
2023-04-24T20:42:53.970Z,41.10
2023-04-24T20:45:21.432Z,41.06
2023-04-24T20:47:50.097Z,41.39
2023-04-24T20:50:18.837Z,41.31
2023-04-24T20:52:45.715Z,41.40
2023-04-24T20:55:13.340Z,41.36
2023-04-24T20:57:40.361Z,41.50
2023-04-24T21:00:08.862Z,41.77
2023-04-24T21:02:35.915Z,41.73
2023-04-24T21:05:04.463Z,41.81
2023-04-24T21:07:31.400Z,41.94
2023-04-24T21:09:57.963Z,41.97
2023-04-24T21:12:24.647Z,42.12
2023-04-24T21:14:51.540Z,42.37
2023-04-24T21:17:18.768Z,42.15
2023-04-24T21:19:45.507Z,42.31
2023-04-24T21:22:12.164Z,42.40
2023-04-24T21:24:38.797Z,42.46
2023-04-24T21:27:05.722Z,42.36
2023-04-24T21:29:33.133Z,42.59
2023-04-24T21:31:59.854Z,42.75
2023-04-24T21:34:26.837Z,42.85
2023-04-24T21:36:53.559Z,42.88
2023-04-24T21:39:21.071Z,42.89
2023-04-24T21:41:47.710Z,42.96
2023-04-24T21:44:14.785Z,42.97
2023-04-24T21:46:42.818Z,43.14
2023-04-24T21:49:09.595Z,43.21
2023-04-24T21:51:36.148Z,43.54
2023-04-24T21:54:02.742Z,43.61
2023-04-24T21:56:29.777Z,43.51
2023-04-24T21:58:56.762Z,43.53
2023-04-24T22:01:23.430Z,43.53
2023-04-24T22:03:50.807Z,43.70
2023-04-24T22:06:17.758Z,43.84
2023-04-24T22:08:47.638Z,43.78
2023-04-24T22:11:25.697Z,43.86
2023-04-24T22:13:54.546Z,44.10
2023-04-24T22:16:23.957Z,44.17
2023-04-24T22:18:53.716Z,44.33
2023-04-24T22:21:21.646Z,44.36
2023-04-24T22:23:48.644Z,44.54
2023-04-24T22:26:15.664Z,44.62
2023-04-24T22:28:42.276Z,44.73
2023-04-24T22:31:09.310Z,44.74
2023-04-24T22:33:36.018Z,44.86
2023-04-24T22:36:03.508Z,44.97
2023-04-24T22:38:30.049Z,45.08
2023-04-24T22:40:56.672Z,45.12
2023-04-24T22:43:23.294Z,45.26
2023-04-24T22:45:50.046Z,45.40
2023-04-24T22:48:16.911Z,45.51
2023-04-24T22:50:43.448Z,45.59
2023-04-24T22:53:10.049Z,45.88
2023-04-24T22:55:36.728Z,45.86
2023-04-24T22:58:03.352Z,45.99
2023-04-24T23:00:30.002Z,46.06
2023-04-24T23:02:56.849Z,46.24
2023-04-24T23:05:25.229Z,46.32
2023-04-24T23:07:51.971Z,46.44
2023-04-24T23:10:18.597Z,46.56
2023-04-24T23:12:45.330Z,46.68
2023-04-24T23:15:12.080Z,46.67
2023-04-24T23:17:41.477Z,46.71
2023-04-24T23:20:13.692Z,46.88
2023-04-24T23:22:40.941Z,47.01
2023-04-24T23:25:11.269Z,47.06
2023-04-24T23:27:38.158Z,47.19
2023-04-24T23:30:06.653Z,47.21
2023-04-24T23:32:33.256Z,47.39
2023-04-24T23:34:59.823Z,47.53
2023-04-24T23:37:26.738Z,47.67
2023-04-24T23:39:53.439Z,47.71
2023-04-24T23:42:20.027Z,47.86
2023-04-24T23:44:46.589Z,47.97
2023-04-24T23:47:13.162Z,48.06
2023-04-24T23:49:39.704Z,48.23
2023-04-24T23:52:06.323Z,48.33
2023-04-24T23:54:33.004Z,48.49
2023-04-24T23:56:59.675Z,48.53
2023-04-24T23:59:26.244Z,48.57
